PABE/BET METAR and TAF weather

Enter ICAO airport designator
Station Type Date Time Source
PABE METAR 2020/01/22 17:53 UTC NOAA

PABE 221753Z 17007KT 10SM OVC050 M18/M20 A2982 RMK AO2 UPE1657 SLP101 P0000 60000 T11781200 11133 21183 51010 $


Station Type Date Time Source
PABE Decoded METAR 2020/01/22 17:53 UTC NOAA

BETHEL AIRPORT, AK, United States (PABE) 60-47N 161-50W 46M
Jan 22, 2020 - 12:53 PM EST / 2020.01.22 1753 UTC
Wind: from the S (170 degrees) at 8 MPH (7 KT):0
Visibility: 10 mile(s):0
Sky conditions: overcast
Precipitation last hour: A trace
Temperature: -0.0 F (-17.8 C)
Windchill: -14 F (-26 C):2
Dew Point: -4.0 F (-20.0 C)
Relative Humidity: 82%
Pressure (altimeter): 29.82 in. Hg (1009 hPa)
Pressure tendency: 0.03 inches (1.0 hPa) higher than three hours ago
ob: PABE 221753Z 17007KT 10SM OVC050 M18/M20 A2982 RMK AO2 UPE1657 SLP101 P0000 60000 T11781200 11133 21183 51010
cycle: 18

Station Type Date Time Source
PABE TAF 2020/01/22 18:24 UTC NOAA

TAF PABE 221722Z 2218/2318 VRB05KT 6SM BR SCT025 BKN050
FM222200 VRB05KT P6SM SCT015 BKN025 BKN050
FM230400 VRB05KT 2SM BR FEW003 SCT007 OVC015
FM231000 33008KT P6SM BKN050

Example: see airport list